Time;durP1;ratioP1;P1;durP2;ratioP2;P2;SDS_P1;SDS_P2;PMS_P1;PMS_P2;Temp;Humidity;BMP_temperature;BMP_pressure;BME280_temperature;BME280_humidity;BME280_pressure;Samples;Min_cycle;Max_cycle;Signal;HPM_P1;HPM_P2
2022/11/05 00:09:56;;;;;;;2.70;2.07;;;9.70;98.00;;;;;;4993514;28;20448;-67
2022/11/05 00:17:53;;;;;;;3.30;1.93;;;9.90;98.00;;;;;;4993427;28;20832;-67
2022/11/05 00:20:22;;;;;;;3.27;1.70;;;10.00;98.00;;;;;;4993014;28;20859;-67
2022/11/05 00:25:34;;;;;;;4.10;2.13;;;10.10;98.00;;;;;;4993192;28;20463;-67
2022/11/05 00:28:03;;;;;;;3.83;2.10;;;10.00;98.00;;;;;;4993084;28;21013;-68
2022/11/05 00:30:31;;;;;;;2.50;1.83;;;10.00;98.00;;;;;;4993146;28;20471;-67
2022/11/05 00:33:02;;;;;;;4.73;2.50;;;10.10;98.00;;;;;;4993090;28;20462;-68
2022/11/05 00:35:30;;;;;;;4.50;2.40;;;10.20;98.00;;;;;;4993084;28;20989;-67
2022/11/05 00:37:57;;;;;;;3.37;2.17;;;10.20;98.00;;;;;;4991383;28;20476;-67
2022/11/05 00:40:25;;;;;;;4.17;2.47;;;10.10;98.00;;;;;;4992882;28;20976;-67
2022/11/05 00:45:38;;;;;;;2.23;1.57;;;10.00;98.00;;;;;;4992692;28;20445;-67
2022/11/05 00:50:52;;;;;;;3.93;2.27;;;9.90;98.00;;;;;;4992658;28;20499;-67
2022/11/05 00:53:19;;;;;;;4.77;2.43;;;9.80;98.00;;;;;;4992694;28;20449;-67
2022/11/05 00:55:46;;;;;;;2.37;1.83;;;9.80;98.00;;;;;;4992395;28;20457;-67
2022/11/05 00:58:15;;;;;;;4.60;2.67;;;9.70;98.00;;;;;;4992730;28;20456;-68
2022/11/05 01:00:44;;;;;;;7.27;2.13;;;9.60;98.00;;;;;;4992664;28;20501;-67
2022/11/05 01:03:13;;;;;;;5.83;1.90;;;9.70;98.00;;;;;;4992457;28;20470;-67
2022/11/05 01:05:42;;;;;;;5.60;2.23;;;9.80;98.00;;;;;;4992535;28;20461;-67
2022/11/05 01:08:11;;;;;;;4.47;2.27;;;10.00;98.00;;;;;;4992524;28;20495;-67
2022/11/05 01:10:42;;;;;;;4.60;2.43;;;10.20;98.00;;;;;;4992559;28;20940;-68
2022/11/05 01:13:09;;;;;;;6.30;2.83;;;10.20;98.00;;;;;;4992593;28;20517;-67
2022/11/05 01:15:37;;;;;;;4.53;2.03;;;10.10;98.00;;;;;;4992397;28;20486;-68
2022/11/05 01:18:05;;;;;;;3.37;1.93;;;10.10;98.00;;;;;;4992554;28;20472;-67
2022/11/05 01:20:32;;;;;;;5.07;2.13;;;10.00;98.00;;;;;;4992358;28;20503;-68
2022/11/05 01:22:59;;;;;;;3.03;2.00;;;10.00;98.00;;;;;;4992513;28;20448;-67
2022/11/05 01:25:28;;;;;;;4.60;2.40;;;10.10;98.00;;;;;;4992423;28;20483;-67
2022/11/05 01:27:55;;;;;;;3.10;1.83;;;10.10;98.00;;;;;;4992375;28;20565;-67
2022/11/05 01:30:22;;;;;;;4.20;2.20;;;10.10;98.00;;;;;;4992384;28;20463;-67
2022/11/05 01:32:49;;;;;;;4.53;2.77;;;10.20;98.00;;;;;;4992463;28;20463;-67
2022/11/05 01:35:18;;;;;;;2.83;2.20;;;10.30;98.00;;;;;;4992521;28;20460;-67
2022/11/05 01:37:47;;;;;;;3.53;2.43;;;10.20;98.00;;;;;;4992344;28;20462;-67
2022/11/05 01:40:16;;;;;;;3.90;2.03;;;10.20;98.00;;;;;;4992216;28;20461;-68
2022/11/05 01:42:47;;;;;;;2.93;2.10;;;10.30;98.00;;;;;;4992239;28;20475;-67
2022/11/05 01:45:19;;;;;;;5.40;2.30;;;10.20;98.00;;;;;;4991951;28;20455;-68
2022/11/05 01:48:08;;;;;;;3.83;2.23;;;10.30;98.00;;;;;;4992168;28;21168;-67
2022/11/05 01:50:42;;;;;;;4.53;2.47;;;10.30;98.00;;;;;;4995895;28;20543;-67
2022/11/05 01:53:16;;;;;;;2.33;1.93;;;10.30;98.00;;;;;;4995948;28;20452;-67
2022/11/05 01:55:49;;;;;;;5.00;2.40;;;10.30;98.00;;;;;;4995650;28;20952;-67
2022/11/05 01:58:21;;;;;;;7.00;2.90;;;10.30;98.00;;;;;;4995699;28;20465;-67
2022/11/05 02:00:48;;;;;;;3.97;2.30;;;10.30;98.00;;;;;;4995664;28;20462;-67
2022/11/05 02:03:17;;;;;;;5.37;2.50;;;10.40;98.00;;;;;;4995355;28;20465;-68
2022/11/05 02:05:47;;;;;;;3.40;2.33;;;10.40;98.00;;;;;;4995061;28;20467;-67
2022/11/05 02:08:22;;;;;;;3.87;2.17;;;10.60;98.00;;;;;;4995121;28;20518;-68
2022/11/05 02:10:50;;;;;;;6.90;2.60;;;10.70;98.00;;;;;;4994780;28;20546;-67
2022/11/05 02:13:18;;;;;;;4.73;2.30;;;10.50;98.00;;;;;;4995400;28;20453;-68
2022/11/05 02:15:56;;;;;;;5.90;2.80;;;10.40;98.00;;;;;;4995512;28;20516;-67
2022/11/05 02:18:35;;;;;;;3.10;1.80;;;10.30;98.00;;;;;;4995904;28;20452;-67
2022/11/05 02:21:41;;;;;;;3.10;2.20;;;10.20;98.00;;;;;;4995583;28;21010;-67
2022/11/05 02:24:50;;;;;;;3.87;2.10;;;10.20;98.00;;;;;;4947880;28;20955;-67
2022/11/05 02:27:23;;;;;;;3.10;2.30;;;10.20;98.00;;;;;;4988056;28;20482;-67
2022/11/05 02:30:16;;;;;;;4.97;1.97;;;10.30;98.00;;;;;;4995387;28;20463;-68
2022/11/05 02:33:06;;;;;;;2.87;1.77;;;10.40;98.00;;;;;;4995256;28;20457;-67
2022/11/05 02:35:53;;;;;;;4.67;1.90;;;10.40;98.00;;;;;;4995035;28;20468;-68
2022/11/05 02:38:34;;;;;;;3.00;2.07;;;10.40;98.00;;;;;;4995065;28;20469;-67
2022/11/05 02:41:08;;;;;;;2.60;2.03;;;10.40;98.00;;;;;;4995023;28;20463;-67
2022/11/05 02:43:51;;;;;;;1.73;1.30;;;10.30;98.00;;;;;;4977589;28;20858;-67
2022/11/05 02:46:27;;;;;;;2.90;1.90;;;10.50;98.00;;;;;;4994775;28;20463;-67
2022/11/05 02:49:01;;;;;;;2.40;1.43;;;10.60;98.00;;;;;;4994813;28;20487;-67
2022/11/05 02:51:35;;;;;;;2.93;2.03;;;10.50;98.00;;;;;;4994883;28;20466;-67
2022/11/05 02:54:10;;;;;;;3.10;1.90;;;10.60;98.00;;;;;;4994530;28;20468;-67
2022/11/05 02:56:42;;;;;;;2.60;1.90;;;10.60;98.00;;;;;;4994516;28;20463;-67
2022/11/05 02:59:09;;;;;;;2.90;1.50;;;10.60;98.00;;;;;;4994707;28;20460;-67
2022/11/05 03:01:40;;;;;;;2.67;2.07;;;10.40;98.00;;;;;;4993802;28;20470;-67
2022/11/05 03:04:12;;;;;;;3.37;2.20;;;10.30;98.00;;;;;;4994826;28;20820;-67
2022/11/05 03:06:57;;;;;;;3.20;1.80;;;10.40;98.00;;;;;;4994660;28;20808;-67
2022/11/05 03:09:48;;;;;;;2.60;1.83;;;10.40;98.00;;;;;;4994831;28;20460;-67
2022/11/05 03:12:26;;;;;;;3.67;1.87;;;10.60;98.00;;;;;;4994653;28;20467;-68
2022/11/05 03:15:02;;;;;;;1.87;1.57;;;10.60;98.00;;;;;;4994661;28;20464;-67
2022/11/05 03:17:36;;;;;;;4.10;1.87;;;10.60;98.00;;;;;;4994582;28;20470;-67
2022/11/05 03:20:15;;;;;;;3.00;2.03;;;10.60;98.00;;;;;;4994754;28;20522;-67
2022/11/05 03:22:47;;;;;;;2.47;1.70;;;10.50;98.00;;;;;;4994574;28;20511;-67
2022/11/05 03:25:17;;;;;;;2.80;2.03;;;10.50;98.00;;;;;;4994335;28;20464;-68
2022/11/05 03:27:47;;;;;;;4.20;2.03;;;10.50;98.00;;;;;;4993844;28;20491;-68
2022/11/05 03:30:18;;;;;;;1.83;1.43;;;10.40;98.00;;;;;;4994307;28;20510;-68
2022/11/05 03:32:50;;;;;;;1.67;1.57;;;10.60;98.00;;;;;;4993507;28;20488;-68
2022/11/05 03:35:25;;;;;;;2.83;1.90;;;10.60;98.00;;;;;;4993862;28;20494;-68
2022/11/05 03:37:58;;;;;;;4.07;2.20;;;10.60;98.00;;;;;;4993800;28;20474;-67
2022/11/05 03:40:26;;;;;;;2.27;1.57;;;10.50;98.00;;;;;;4993724;28;20986;-67
2022/11/05 03:42:57;;;;;;;2.07;1.73;;;10.40;98.00;;;;;;4993771;28;20453;-67
2022/11/05 03:45:29;;;;;;;1.80;1.40;;;10.50;98.00;;;;;;4993665;28;20462;-68
2022/11/05 03:48:01;;;;;;;3.50;1.70;;;10.40;98.00;;;;;;4993609;28;20496;-67
2022/11/05 03:50:34;;;;;;;2.17;1.40;;;10.30;98.00;;;;;;4993617;28;20463;-67
2022/11/05 03:53:07;;;;;;;5.93;1.80;;;10.30;98.00;;;;;;4993600;28;20460;-67
2022/11/05 03:55:48;;;;;;;6.10;2.20;;;10.30;98.00;;;;;;4993540;28;20468;-67
2022/11/05 03:58:19;;;;;;;2.23;1.40;;;10.30;98.00;;;;;;4977909;28;20831;-67
2022/11/05 04:00:47;;;;;;;2.27;1.30;;;10.20;98.00;;;;;;4993656;28;20593;-67
2022/11/05 04:03:14;;;;;;;3.30;1.80;;;10.20;98.00;;;;;;4993274;28;20476;-67
2022/11/05 04:13:22;;;;;;;2.07;1.47;;;10.20;98.00;;;;;;4993326;28;20463;-67
2022/11/05 04:14:04;;;;;;;1.70;1.50;;;10.30;98.00;;;;;;4992968;28;20483;-67
2022/11/05 04:24:07;;;;;;;6.23;1.77;;;10.40;98.00;;;;;;4993757;28;20539;-67
2022/11/05 04:24:49;;;;;;;1.67;1.57;;;10.40;98.00;;;;;;4993167;28;20448;-68
2022/11/05 04:27:17;;;;;;;3.37;1.90;;;10.30;98.00;;;;;;4992935;28;20936;-67
2022/11/05 04:32:28;;;;;;;1.80;1.37;;;10.30;98.00;;;;;;4992835;28;20497;-67
2022/11/05 04:34:56;;;;;;;2.40;1.67;;;10.30;98.00;;;;;;4992444;28;20465;-67
2022/11/05 04:37:25;;;;;;;2.40;1.90;;;10.30;98.00;;;;;;4992882;28;20936;-67
2022/11/05 04:39:52;;;;;;;1.60;1.50;;;10.30;98.00;;;;;;4993080;28;20464;-67
2022/11/05 04:42:19;;;;;;;3.20;1.80;;;10.30;98.00;;;;;;4992986;28;20925;-67
2022/11/05 04:44:47;;;;;;;2.63;1.57;;;10.30;98.00;;;;;;4992702;28;20464;-67
2022/11/05 04:47:15;;;;;;;2.07;1.50;;;10.30;98.00;;;;;;4992732;28;20472;-67
2022/11/05 04:49:43;;;;;;;3.90;1.70;;;10.30;98.00;;;;;;4992700;28;20487;-67
2022/11/05 04:52:10;;;;;;;2.10;1.57;;;10.30;98.00;;;;;;4993058;28;20500;-67
2022/11/05 04:54:39;;;;;;;5.23;1.80;;;10.40;98.00;;;;;;4992714;28;20958;-67
2022/11/05 04:57:07;;;;;;;2.90;1.70;;;10.30;98.00;;;;;;4975508;28;20511;-67
2022/11/05 04:59:34;;;;;;;2.50;1.80;;;10.30;98.00;;;;;;4992651;28;20949;-67
2022/11/05 05:02:01;;;;;;;2.50;1.73;;;10.30;98.00;;;;;;4992710;28;20953;-67
2022/11/05 05:04:28;;;;;;;4.40;1.80;;;10.30;98.00;;;;;;4992672;28;20456;-67
2022/11/05 05:06:55;;;;;;;2.50;1.70;;;10.30;98.00;;;;;;4992874;28;20452;-67
2022/11/05 05:09:22;;;;;;;2.70;1.93;;;10.30;98.00;;;;;;4992715;28;20511;-67
2022/11/05 05:11:51;;;;;;;2.10;1.30;;;10.30;98.00;;;;;;4992480;28;20976;-68
2022/11/05 05:14:18;;;;;;;2.70;1.80;;;10.30;98.00;;;;;;4992477;28;20469;-67
2022/11/05 05:16:45;;;;;;;6.83;1.60;;;10.30;98.00;;;;;;4992340;28;20463;-67
2022/11/05 05:19:13;;;;;;;2.97;2.07;;;10.20;98.00;;;;;;4992453;28;20458;-67
2022/11/05 05:21:41;;;;;;;3.20;1.77;;;10.30;98.00;;;;;;4992247;28;20946;-67
2022/11/05 05:24:10;;;;;;;1.97;1.50;;;10.40;98.00;;;;;;4994189;28;20471;-67
2022/11/05 05:26:38;;;;;;;2.47;2.13;;;10.30;98.00;;;;;;4979176;28;20463;-68
2022/11/05 05:29:07;;;;;;;3.33;1.63;;;10.30;98.00;;;;;;4996059;28;21184;-67
2022/11/05 05:31:36;;;;;;;3.40;2.10;;;10.40;98.00;;;;;;4996292;28;20456;-68
2022/11/05 05:34:03;;;;;;;3.43;2.07;;;10.30;98.00;;;;;;4996195;28;20456;-67
2022/11/05 05:36:31;;;;;;;3.27;2.30;;;10.30;98.00;;;;;;4996335;28;20862;-67
2022/11/05 05:38:58;;;;;;;10.13;2.20;;;10.30;98.00;;;;;;4996070;28;20462;-67
2022/11/05 05:41:25;;;;;;;4.40;2.00;;;10.40;98.00;;;;;;4995951;28;20470;-67
2022/11/05 05:43:53;;;;;;;2.53;2.30;;;10.30;98.00;;;;;;4996110;28;21011;-67
2022/11/05 05:46:23;;;;;;;6.40;2.40;;;10.30;98.00;;;;;;4978900;28;20507;-67
2022/11/05 05:48:51;;;;;;;2.97;1.83;;;10.30;98.00;;;;;;4996307;28;20495;-67
2022/11/05 05:51:19;;;;;;;3.53;2.20;;;10.20;98.00;;;;;;4996057;28;20464;-67
2022/11/05 05:53:46;;;;;;;2.30;2.00;;;10.30;98.00;;;;;;4996074;28;20456;-67
2022/11/05 05:56:17;;;;;;;3.30;2.13;;;10.40;98.00;;;;;;4995916;28;20460;-67
2022/11/05 05:58:46;;;;;;;3.60;2.00;;;10.40;98.00;;;;;;4995876;28;20459;-66
2022/11/05 06:01:16;;;;;;;3.80;2.40;;;10.40;98.00;;;;;;4996024;28;20938;-67
2022/11/05 06:03:44;;;;;;;5.67;2.67;;;10.50;98.00;;;;;;4996105;28;20855;-68
2022/11/05 06:06:13;;;;;;;3.20;1.70;;;10.40;98.00;;;;;;4995745;28;20459;-67
2022/11/05 06:08:41;;;;;;;4.43;2.30;;;10.40;98.00;;;;;;4995556;28;20587;-67
2022/11/05 06:11:09;;;;;;;4.73;2.30;;;10.30;98.00;;;;;;4978443;28;20507;-67
2022/11/05 06:13:36;;;;;;;4.13;2.37;;;10.40;98.00;;;;;;4995457;28;20875;-67
2022/11/05 06:16:06;;;;;;;5.87;2.97;;;10.30;98.00;;;;;;4978278;28;20459;-68
2022/11/05 06:18:34;;;;;;;3.43;1.97;;;10.30;98.00;;;;;;4995400;28;20457;-67
2022/11/05 06:21:03;;;;;;;2.90;2.23;;;10.20;98.00;;;;;;4995212;28;20454;-68
2022/11/05 06:23:31;;;;;;;3.40;2.13;;;10.20;98.00;;;;;;4995553;28;20466;-67
2022/11/05 06:26:01;;;;;;;3.17;2.17;;;10.20;98.00;;;;;;4995274;28;20496;-67
2022/11/05 06:28:29;;;;;;;4.93;2.77;;;10.30;98.00;;;;;;4995247;28;20512;-67
2022/11/05 06:30:56;;;;;;;5.07;2.80;;;10.30;98.00;;;;;;4995158;28;20489;-68
2022/11/05 06:33:24;;;;;;;3.07;2.20;;;10.30;98.00;;;;;;4995124;28;20880;-68
2022/11/05 06:35:52;;;;;;;3.90;2.43;;;10.20;98.00;;;;;;4994026;28;20472;-67
2022/11/05 06:38:21;;;;;;;2.93;1.97;;;10.20;98.00;;;;;;4995193;28;20465;-67
2022/11/05 06:40:50;;;;;;;2.33;1.53;;;10.20;98.00;;;;;;4995143;28;20468;-67
2022/11/05 06:43:17;;;;;;;3.53;2.07;;;10.20;98.00;;;;;;4994970;28;20518;-67
2022/11/05 06:45:44;;;;;;;5.43;2.07;;;10.20;98.00;;;;;;4994996;28;20980;-67
2022/11/05 06:48:11;;;;;;;3.20;2.30;;;10.20;98.00;;;;;;4995057;28;20972;-67
2022/11/05 06:50:44;;;;;;;4.20;2.20;;;10.30;98.00;;;;;;4994939;28;20502;-67
2022/11/05 06:53:12;;;;;;;4.37;1.87;;;10.40;98.00;;;;;;4994940;28;20474;-67
2022/11/05 06:55:43;;;;;;;5.90;2.67;;;10.40;98.00;;;;;;4977766;28;20448;-67
2022/11/05 06:58:11;;;;;;;7.40;2.80;;;10.50;98.00;;;;;;4994758;28;20465;-67
2022/11/05 07:00:38;;;;;;;5.47;2.37;;;10.60;98.00;;;;;;4994817;28;20463;-67
2022/11/05 07:03:05;;;;;;;3.00;2.07;;;10.60;98.00;;;;;;4994609;28;20475;-67
2022/11/05 07:05:35;;;;;;;4.43;2.67;;;10.60;98.00;;;;;;4994636;28;20453;-68
2022/11/05 07:08:02;;;;;;;6.40;2.63;;;10.70;98.00;;;;;;4994579;28;20456;-67
2022/11/05 07:10:29;;;;;;;5.10;2.30;;;10.70;98.00;;;;;;4977049;28;20449;-67
2022/11/05 07:12:58;;;;;;;8.20;2.97;;;10.70;98.00;;;;;;4977238;28;20812;-68
2022/11/05 07:15:26;;;;;;;5.10;2.90;;;10.70;98.00;;;;;;4994271;28;20796;-67
2022/11/05 07:17:58;;;;;;;4.10;2.50;;;10.50;98.00;;;;;;4994391;28;20974;-68
2022/11/05 07:20:27;;;;;;;3.03;1.93;;;10.50;98.00;;;;;;4994451;28;20472;-67
2022/11/05 07:23:02;;;;;;;5.23;2.67;;;10.70;98.00;;;;;;4994183;28;20456;-67
2022/11/05 07:25:32;;;;;;;2.90;1.83;;;10.60;98.00;;;;;;4994237;28;20488;-67
2022/11/05 07:28:01;;;;;;;4.47;2.77;;;10.50;98.00;;;;;;4994199;28;20460;-67
2022/11/05 07:30:29;;;;;;;6.70;2.73;;;10.60;98.00;;;;;;4994234;28;20493;-67
2022/11/05 07:32:57;;;;;;;4.97;2.73;;;10.50;98.00;;;;;;4994487;28;20454;-67
2022/11/05 07:35:25;;;;;;;4.93;2.70;;;10.40;98.00;;;;;;4994066;28;20841;-68
2022/11/05 07:37:53;;;;;;;6.47;2.80;;;10.30;98.00;;;;;;4994006;28;20458;-66
2022/11/05 07:40:23;;;;;;;4.47;2.43;;;10.30;98.00;;;;;;4994185;28;20452;-66
2022/11/05 07:42:52;;;;;;;4.63;2.60;;;10.40;98.00;;;;;;4993994;28;20483;-67
2022/11/05 07:45:22;;;;;;;11.27;3.13;;;10.40;98.00;;;;;;4993953;28;20467;-66
2022/11/05 07:47:51;;;;;;;6.27;3.07;;;10.40;98.00;;;;;;4993820;28;20453;-66
2022/11/05 07:50:20;;;;;;;5.53;2.60;;;10.60;98.00;;;;;;4993413;28;20496;-66
2022/11/05 07:52:47;;;;;;;4.10;2.20;;;10.70;98.00;;;;;;4993360;28;20456;-66
2022/11/05 07:55:15;;;;;;;8.17;2.60;;;10.70;98.00;;;;;;4993718;28;20560;-67
2022/11/05 07:57:43;;;;;;;3.13;2.37;;;10.70;98.00;;;;;;4993526;28;20469;-66
2022/11/05 08:00:13;;;;;;;8.00;3.40;;;10.70;98.00;;;;;;4976478;28;20492;-67
2022/11/05 08:02:41;;;;;;;4.00;2.47;;;10.70;98.00;;;;;;4993180;28;20503;-66
2022/11/05 08:05:10;;;;;;;4.50;2.60;;;10.70;98.00;;;;;;4992682;28;20441;-66
2022/11/05 08:07:37;;;;;;;4.73;3.10;;;10.90;98.00;;;;;;4993241;28;20460;-66
2022/11/05 08:10:05;;;;;;;4.50;2.63;;;10.80;98.00;;;;;;4993494;28;20484;-65
2022/11/05 08:12:32;;;;;;;6.80;3.60;;;10.70;98.00;;;;;;4993082;28;20456;-66
2022/11/05 08:14:59;;;;;;;4.90;2.50;;;10.70;98.00;;;;;;4993122;28;20460;-66
2022/11/05 08:17:27;;;;;;;4.23;2.40;;;10.80;98.00;;;;;;4993118;28;20468;-67
2022/11/05 08:19:55;;;;;;;3.73;2.40;;;10.70;98.00;;;;;;4993075;28;20461;-67
2022/11/05 08:22:22;;;;;;;4.63;2.50;;;10.80;98.00;;;;;;4991697;28;20472;-67
2022/11/05 08:24:49;;;;;;;7.00;3.57;;;10.90;98.00;;;;;;5002189;28;20977;-68
2022/11/05 08:27:17;;;;;;;5.97;3.00;;;10.70;98.00;;;;;;5001151;28;20471;-67
2022/11/05 08:29:44;;;;;;;19.33;3.30;;;10.70;98.00;;;;;;4982017;28;20496;-67
2022/11/05 08:32:11;;;;;;;7.97;2.93;;;10.90;98.00;;;;;;5009535;28;20482;-67
2022/11/05 08:34:38;;;;;;;5.70;2.80;;;10.90;98.00;;;;;;5004478;28;20973;-67
2022/11/05 08:37:07;;;;;;;4.03;2.77;;;10.90;98.00;;;;;;4991487;28;20466;-66
2022/11/05 08:39:34;;;;;;;12.13;3.90;;;11.10;98.00;;;;;;4976862;28;20448;-67
2022/11/05 08:42:01;;;;;;;6.90;3.23;;;11.20;98.00;;;;;;4992104;28;20482;-66
2022/11/05 08:44:29;;;;;;;6.20;3.00;;;11.00;98.00;;;;;;4999637;28;20460;-67
2022/11/05 08:46:56;;;;;;;4.50;2.50;;;11.00;98.00;;;;;;5001263;28;20465;-67
2022/11/05 08:49:23;;;;;;;4.47;2.60;;;10.90;98.00;;;;;;4998690;28;20493;-66
2022/11/05 08:51:50;;;;;;;6.63;3.20;;;11.00;98.00;;;;;;5001175;28;20938;-67
2022/11/05 08:54:24;;;;;;;8.53;3.33;;;10.90;98.00;;;;;;4996920;28;20452;-67
2022/11/05 08:56:51;;;;;;;4.53;2.50;;;10.90;98.00;;;;;;4991176;28;20481;-68
2022/11/05 08:59:20;;;;;;;7.90;3.10;;;10.60;98.00;;;;;;4999181;28;20829;-67
2022/11/05 09:01:49;;;;;;;4.70;3.47;;;10.70;98.00;;;;;;4999410;28;20836;-68
2022/11/05 09:04:16;;;;;;;6.87;2.73;;;10.70;98.00;;;;;;4999712;28;20487;-67
2022/11/05 09:06:43;;;;;;;4.80;2.60;;;10.70;98.00;;;;;;5008290;28;20812;-68
2022/11/05 09:09:11;;;;;;;6.80;3.80;;;10.80;98.00;;;;;;5000293;28;20488;-67
2022/11/05 09:11:40;;;;;;;3.30;2.20;;;10.80;98.00;;;;;;4973979;28;20510;-67
2022/11/05 09:14:07;;;;;;;5.17;2.73;;;10.70;98.00;;;;;;4999469;28;20456;-67
2022/11/05 09:16:35;;;;;;;4.47;2.87;;;10.80;98.00;;;;;;4990188;28;20461;-67
2022/11/05 09:19:03;;;;;;;3.63;2.63;;;10.80;98.00;;;;;;4990225;28;20510;-68
2022/11/05 09:21:31;;;;;;;6.00;3.10;;;10.70;98.00;;;;;;4990424;28;20832;-67
2022/11/05 09:23:58;;;;;;;3.43;2.30;;;10.60;98.00;;;;;;5000275;28;20464;-67
2022/11/05 09:26:26;;;;;;;5.93;3.17;;;10.40;98.00;;;;;;4997986;28;20801;-67
2022/11/05 09:28:54;;;;;;;3.53;2.60;;;10.30;98.00;;;;;;4999403;28;20533;-66
2022/11/05 09:31:21;;;;;;;6.40;2.20;;;10.20;98.00;;;;;;5011023;28;20453;-67
2022/11/05 09:33:49;;;;;;;4.40;2.80;;;10.10;98.00;;;;;;5011226;28;20734;-67
2022/11/05 09:36:16;;;;;;;3.47;2.17;;;10.10;98.00;;;;;;5011245;28;20513;-66
2022/11/05 09:38:43;;;;;;;4.40;2.80;;;10.00;98.00;;;;;;5011162;28;20466;-66
2022/11/05 09:41:20;;;;;;;4.27;2.63;;;10.00;98.00;;;;;;5011652;28;20973;-67
2022/11/05 09:43:51;;;;;;;9.23;2.57;;;9.90;98.00;;;;;;5011247;28;20470;-67
2022/11/05 09:46:23;;;;;;;2.73;1.90;;;9.70;98.00;;;;;;5011149;28;20466;-68
2022/11/05 09:48:54;;;;;;;4.87;2.10;;;9.70;98.00;;;;;;5010977;28;20876;-67
2022/11/05 09:51:22;;;;;;;2.40;1.97;;;9.60;98.00;;;;;;5011134;28;20470;-66
2022/11/05 09:53:50;;;;;;;3.50;2.50;;;9.50;98.00;;;;;;5011119;28;20487;-67
2022/11/05 09:56:26;;;;;;;4.67;1.97;;;9.60;98.00;;;;;;5010919;28;20492;-67
2022/11/05 09:58:58;;;;;;;2.50;2.07;;;9.50;98.00;;;;;;5010677;28;20462;-67
2022/11/05 10:01:31;;;;;;;2.63;2.07;;;9.60;98.00;;;;;;5011168;28;20458;-66
2022/11/05 10:04:01;;;;;;;4.53;2.17;;;9.60;98.00;;;;;;5011095;28;20469;-67
2022/11/05 10:06:29;;;;;;;1.57;1.53;;;9.50;98.00;;;;;;5010914;28;20475;-67
2022/11/05 10:09:03;;;;;;;2.40;1.57;;;9.60;98.00;;;;;;5010872;28;20466;-67
2022/11/05 10:11:35;;;;;;;1.73;1.63;;;9.70;98.00;;;;;;5014290;28;20461;-67
2022/11/05 10:14:10;;;;;;;4.87;2.83;;;9.60;98.00;;;;;;5014332;28;20462;-67
2022/11/05 10:16:43;;;;;;;8.83;2.10;;;9.50;98.00;;;;;;5014512;28;20955;-67
2022/11/05 10:19:20;;;;;;;3.67;2.40;;;9.50;98.00;;;;;;5014590;28;20856;-67
2022/11/05 10:21:47;;;;;;;3.37;2.20;;;9.50;98.00;;;;;;5014248;28;20455;-67
2022/11/05 10:24:19;;;;;;;3.10;2.10;;;9.50;98.00;;;;;;5014321;28;20529;-66
2022/11/05 10:26:48;;;;;;;2.23;1.80;;;9.60;98.00;;;;;;5014165;28;20454;-67
2022/11/05 10:29:20;;;;;;;2.33;1.60;;;9.60;98.00;;;;;;5014202;28;20858;-67
2022/11/05 10:31:51;;;;;;;3.77;1.93;;;9.60;98.00;;;;;;5014194;28;20949;-67
2022/11/05 10:34:19;;;;;;;3.63;2.07;;;9.60;98.00;;;;;;5014393;28;20466;-67
2022/11/05 10:36:47;;;;;;;2.30;1.80;;;9.60;98.00;;;;;;5014254;28;20463;-67
2022/11/05 10:39:16;;;;;;;3.07;2.00;;;9.70;98.00;;;;;;5013887;28;20521;-67
2022/11/05 10:42:07;;;;;;;3.87;2.10;;;9.70;98.00;;;;;;5013929;28;20455;-67
2022/11/05 10:44:38;;;;;;;2.00;1.77;;;9.80;98.00;;;;;;5013992;28;20873;-66
2022/11/05 10:47:39;;;;;;;2.03;1.63;;;9.70;98.00;;;;;;5014083;28;20513;-67
2022/11/05 10:50:11;;;;;;;3.10;1.73;;;9.70;98.00;;;;;;5000040;28;20490;-67
2022/11/05 10:52:42;;;;;;;2.53;2.07;;;9.70;98.00;;;;;;5014035;28;20504;-66
2022/11/05 10:55:17;;;;;;;2.17;1.90;;;9.60;98.00;;;;;;5014384;28;20464;-66
2022/11/05 10:57:44;;;;;;;3.40;2.10;;;9.60;98.00;;;;;;5000103;28;20486;-66
2022/11/05 11:00:27;;;;;;;4.43;2.10;;;9.60;98.00;;;;;;5016672;28;20460;-66
2022/11/05 11:02:58;;;;;;;5.00;2.20;;;9.50;98.00;;;;;;5014465;28;20502;-67
2022/11/05 11:05:29;;;;;;;5.60;2.73;;;9.60;98.00;;;;;;5014145;28;20470;-66
2022/11/05 11:08:00;;;;;;;2.67;1.77;;;9.60;98.00;;;;;;5014393;28;20608;-66
2022/11/05 11:10:28;;;;;;;3.30;1.93;;;9.70;98.00;;;;;;5014249;28;20518;-67
2022/11/05 11:12:57;;;;;;;3.00;2.10;;;9.70;98.00;;;;;;5014109;28;20470;-66
2022/11/05 11:15:37;;;;;;;3.67;2.47;;;9.80;98.00;;;;;;5014091;28;20463;-66
2022/11/05 11:23:19;;;;;;;2.70;2.17;;;9.90;98.00;;;;;;5010739;28;20483;-65
2022/11/05 11:25:53;;;;;;;2.97;2.20;;;9.90;98.00;;;;;;5013875;28;21239;-65
2022/11/05 11:28:24;;;;;;;3.17;2.43;;;9.90;98.00;;;;;;5013954;28;20461;-65
2022/11/05 11:30:56;;;;;;;5.70;2.33;;;10.10;98.00;;;;;;5013279;28;20487;-65
2022/11/05 11:33:27;;;;;;;2.37;1.73;;;10.10;98.00;;;;;;5013815;28;20467;-65
2022/11/05 11:35:55;;;;;;;5.60;2.67;;;10.20;98.00;;;;;;5013299;28;20469;-65
2022/11/05 11:38:25;;;;;;;5.10;2.83;;;10.20;98.00;;;;;;5013525;28;20451;-65
2022/11/05 11:41:02;;;;;;;2.87;2.37;;;10.30;98.00;;;;;;5013237;28;20500;-65
2022/11/05 11:43:33;;;;;;;4.47;2.33;;;10.30;98.00;;;;;;5013278;28;20542;-65
2022/11/05 11:46:03;;;;;;;3.77;2.00;;;10.20;98.00;;;;;;5013532;28;20920;-65
2022/11/05 11:48:33;;;;;;;3.37;2.17;;;10.30;98.00;;;;;;4996096;28;20557;-65
2022/11/05 11:51:17;;;;;;;2.70;2.13;;;10.20;98.00;;;;;;5013295;28;20491;-65
2022/11/05 11:53:48;;;;;;;2.80;1.83;;;10.30;98.00;;;;;;5013324;28;20993;-65
2022/11/05 11:56:17;;;;;;;4.63;2.20;;;10.40;98.00;;;;;;5013329;28;20466;-65
2022/11/05 11:58:47;;;;;;;6.80;2.20;;;10.40;98.00;;;;;;5013121;28;20547;-65
2022/11/05 12:02:06;;;;;;;3.03;2.07;;;10.30;98.00;;;;;;5013254;28;20467;-65
2022/11/05 12:05:11;;;;;;;4.47;2.23;;;10.30;98.00;;;;;;5013173;28;20463;-65
2022/11/05 12:07:48;;;;;;;6.07;2.37;;;10.20;98.00;;;;;;4980645;28;20481;-65
2022/11/05 12:10:28;;;;;;;6.57;3.23;;;10.40;98.00;;;;;;5013195;28;20519;-65
2022/11/05 12:13:10;;;;;;;2.70;2.03;;;10.40;98.00;;;;;;5013221;28;20518;-65
2022/11/05 12:15:45;;;;;;;5.20;3.40;;;10.40;98.00;;;;;;5012827;28;20514;-65
2022/11/05 12:18:21;;;;;;;2.27;1.77;;;10.50;98.00;;;;;;5013019;28;20466;-65
2022/11/05 12:21:05;;;;;;;2.83;2.07;;;10.60;98.00;;;;;;5012981;28;20463;-65
2022/11/05 12:23:55;;;;;;;3.37;2.20;;;10.70;98.00;;;;;;5012938;28;20489;-65
2022/11/05 12:26:38;;;;;;;5.50;2.00;;;10.80;98.00;;;;;;5012483;28;20460;-65
2022/11/05 12:29:34;;;;;;;2.50;1.60;;;10.60;98.00;;;;;;5012975;28;20487;-65
2022/11/05 12:32:44;;;;;;;3.93;2.30;;;10.60;98.00;;;;;;5010819;28;20879;-65
2022/11/05 12:35:32;;;;;;;17.53;2.63;;;10.70;98.00;;;;;;5012352;28;20460;-65
2022/11/05 12:38:11;;;;;;;4.60;1.90;;;10.90;98.00;;;;;;5010607;28;20492;-65
2022/11/05 12:41:00;;;;;;;5.37;1.67;;;10.70;98.00;;;;;;5012461;28;20475;-65
2022/11/05 12:43:38;;;;;;;2.50;1.97;;;10.80;98.00;;;;;;5012553;28;20462;-65
2022/11/05 12:46:17;;;;;;;5.30;2.83;;;11.10;98.00;;;;;;5012297;28;20581;-65
2022/11/05 12:49:03;;;;;;;3.73;2.30;;;11.40;98.00;;;;;;5012567;28;20483;-65
2022/11/05 12:51:48;;;;;;;4.50;2.67;;;11.50;98.00;;;;;;5012260;28;20834;-65
2022/11/05 12:54:28;;;;;;;4.40;2.50;;;11.90;98.00;;;;;;5012448;28;20463;-65
2022/11/05 12:56:58;;;;;;;4.90;2.83;;;12.00;98.00;;;;;;5012606;28;20457;-65
2022/11/05 12:59:33;;;;;;;4.07;2.00;;;12.00;98.00;;;;;;5012230;28;20456;-65
2022/11/05 13:02:10;;;;;;;6.13;3.00;;;12.00;98.00;;;;;;5012289;28;20930;-65
2022/11/05 13:04:42;;;;;;;2.57;2.03;;;11.90;98.00;;;;;;5012437;28;20464;-65
2022/11/05 13:07:13;;;;;;;2.07;1.60;;;11.80;98.00;;;;;;5012247;28;20461;-65
2022/11/05 13:09:54;;;;;;;4.40;2.07;;;11.70;98.00;;;;;;5011682;28;20784;-65
2022/11/05 13:12:25;;;;;;;5.87;2.60;;;11.70;98.00;;;;;;5011870;28;20561;-65
2022/11/05 13:14:56;;;;;;;2.83;2.00;;;11.60;98.00;;;;;;5011748;28;20524;-65
2022/11/05 13:17:28;;;;;;;5.50;2.60;;;11.50;98.00;;;;;;5012151;28;20837;-65
2022/11/05 13:20:02;;;;;;;4.30;2.90;;;11.50;98.00;;;;;;5012019;28;20485;-65
2022/11/05 13:22:36;;;;;;;6.80;3.07;;;11.50;98.00;;;;;;5012008;28;20537;-65
2022/11/05 13:25:10;;;;;;;3.80;2.10;;;11.40;98.00;;;;;;5012034;28;20452;-65
2022/11/05 13:28:01;;;;;;;4.00;2.80;;;11.30;98.00;;;;;;5011892;28;20501;-65
2022/11/05 13:30:36;;;;;;;4.67;2.90;;;11.20;98.00;;;;;;5008223;28;20480;-65
2022/11/05 13:33:13;;;;;;;5.63;2.30;;;11.30;98.00;;;;;;5011954;28;20471;-65
2022/11/05 13:35:45;;;;;;;3.20;2.10;;;11.20;98.00;;;;;;5011771;28;20459;-65
2022/11/05 13:41:20;;;;;;;4.23;2.33;;;11.30;98.00;;;;;;5012075;28;20446;-66
2022/11/05 13:44:03;;;;;;;4.27;2.63;;;11.10;98.00;;;;;;5011769;28;20520;-65
2022/11/05 13:47:12;;;;;;;4.00;2.43;;;11.30;98.00;;;;;;5015563;28;20532;-65
2022/11/05 13:50:19;;;;;;;4.40;2.27;;;11.30;98.00;;;;;;5010753;28;20585;-65
2022/11/05 13:53:17;;;;;;;3.83;2.60;;;11.30;98.00;;;;;;5014323;28;20958;-65
2022/11/05 13:56:04;;;;;;;3.40;2.10;;;11.30;98.00;;;;;;5015552;28;20465;-65
2022/11/05 13:59:00;;;;;;;3.33;2.03;;;11.20;98.00;;;;;;5015266;28;20499;-65